CheckWX is a tool to help pilots better visualize weather data.  It is not intended as a substitute for an official pre-flight weather briefing.

14:42:42 UTC

KCXU METAR
Camilla-Mitchell County Airport
Camilla, Georgia, USA
Current

8 mins ago

KCXU 201435Z AUTO 00000KT 10SM CLR 28/19 A3008 RMK AO1 T02750191
Observed
May-20 @ 14:35 UTC
Visibility
10 SM
Flight Rules
VFR
Cloud Levels
  • Clear skies
Temperature
28°C / 82°F
Dewpoint
19°C / 66°F
Heat Index
29°C / 84°F
Humidity
58%
Altimeter
30.08" Hg
Pressure
1018.62 hPa
Previous

28 mins ago

KCXU 201415Z AUTO 00000KT 10SM CLR 27/19 A3008 RMK AO1 T02690193
Observed
May-20 @ 14:15 UTC
Visibility
10 SM
Flight Rules
VFR
Cloud Levels
  • Clear skies
Temperature
27°C / 81°F
Dewpoint
19°C / 66°F
Heat Index
28°C / 83°F
Humidity
62%
Altimeter
30.08" Hg
Pressure
1018.62 hPa
Previous

48 mins ago

KCXU 201355Z AUTO 00000KT 10SM CLR 26/19 A3008 RMK AO1 T02610192
Observed
May-20 @ 13:55 UTC
Visibility
10 SM
Flight Rules
VFR
Cloud Levels
  • Clear skies
Temperature
26°C / 79°F
Dewpoint
19°C / 66°F
Humidity
65%
Altimeter
30.08" Hg
Pressure
1018.62 hPa